sensor_id;sensor_type;location;lat;lon;timestamp;pressure;altitude;pressure_sealevel;temperature;humidity
55755;BME280;41674;52.290;-1.474;2023-04-19T00:01:26;102199.00;;;5.41;100.00
55755;BME280;41674;52.290;-1.474;2023-04-19T00:03:55;102198.51;;;5.62;100.00
55755;BME280;41674;52.290;-1.474;2023-04-19T00:06:25;102198.45;;;5.69;100.00
55755;BME280;41674;52.290;-1.474;2023-04-19T00:08:54;102197.41;;;5.20;100.00
55755;BME280;41674;52.290;-1.474;2023-04-19T00:11:23;102200.66;;;5.08;100.00
55755;BME280;41674;52.290;-1.474;2023-04-19T00:13:53;102191.09;;;5.76;100.00
55755;BME280;41674;52.290;-1.474;2023-04-19T00:16:22;102196.21;;;5.75;100.00
55755;BME280;41674;52.290;-1.474;2023-04-19T00:18:52;102193.63;;;5.62;100.00
55755;BME280;41674;52.290;-1.474;2023-04-19T00:21:21;102192.74;;;5.74;100.00
55755;BME280;41674;52.290;-1.474;2023-04-19T00:23:52;102192.71;;;5.38;100.00
55755;BME280;41674;52.290;-1.474;2023-04-19T00:26:21;102185.62;;;5.84;100.00
55755;BME280;41674;52.290;-1.474;2023-04-19T00:28:51;102185.04;;;5.15;100.00
55755;BME280;41674;52.290;-1.474;2023-04-19T00:31:20;102182.65;;;5.94;100.00
55755;BME280;41674;52.290;-1.474;2023-04-19T00:33:49;102182.91;;;6.49;99.35
55755;BME280;41674;52.290;-1.474;2023-04-19T00:36:18;102180.03;;;5.81;100.00
55755;BME280;41674;52.290;-1.474;2023-04-19T00:38:48;102176.27;;;5.35;100.00
55755;BME280;41674;52.290;-1.474;2023-04-19T00:41:17;102177.40;;;6.44;100.00
55755;BME280;41674;52.290;-1.474;2023-04-19T00:43:47;102175.13;;;5.46;100.00
55755;BME280;41674;52.290;-1.474;2023-04-19T00:46:16;102173.12;;;6.52;96.81
55755;BME280;41674;52.290;-1.474;2023-04-19T00:48:47;102173.30;;;5.88;98.20
55755;BME280;41674;52.290;-1.474;2023-04-19T00:51:16;102176.74;;;6.16;100.00
55755;BME280;41674;52.290;-1.474;2023-04-19T00:53:46;102175.29;;;5.92;99.91
55755;BME280;41674;52.290;-1.474;2023-04-19T00:56:16;102171.80;;;6.24;99.91
55755;BME280;41674;52.290;-1.474;2023-04-19T00:58:45;102169.64;;;6.53;97.55
55755;BME280;41674;52.290;-1.474;2023-04-19T01:01:14;102167.21;;;5.83;100.00
55755;BME280;41674;52.290;-1.474;2023-04-19T01:03:44;102167.71;;;6.09;100.00
55755;BME280;41674;52.290;-1.474;2023-04-19T01:06:14;102167.95;;;5.56;100.00
55755;BME280;41674;52.290;-1.474;2023-04-19T01:08:43;102164.82;;;6.15;99.30
55755;BME280;41674;52.290;-1.474;2023-04-19T01:11:12;102163.37;;;5.84;100.00
55755;BME280;41674;52.290;-1.474;2023-04-19T01:13:42;102164.55;;;6.74;96.84
55755;BME280;41674;52.290;-1.474;2023-04-19T01:16:11;102161.24;;;7.31;94.41
55755;BME280;41674;52.290;-1.474;2023-04-19T01:18:41;102156.65;;;6.53;96.58
55755;BME280;41674;52.290;-1.474;2023-04-19T01:21:10;102158.09;;;5.94;98.97
55755;BME280;41674;52.290;-1.474;2023-04-19T01:23:40;102154.85;;;6.22;97.63
55755;BME280;41674;52.290;-1.474;2023-04-19T01:26:10;102158.51;;;6.33;98.78
55755;BME280;41674;52.290;-1.474;2023-04-19T01:28:39;102156.35;;;5.92;99.34
55755;BME280;41674;52.290;-1.474;2023-04-19T01:31:09;102154.39;;;6.76;98.72
55755;BME280;41674;52.290;-1.474;2023-04-19T01:33:38;102150.10;;;6.26;100.00
55755;BME280;41674;52.290;-1.474;2023-04-19T01:36:08;102148.46;;;5.73;100.00
55755;BME280;41674;52.290;-1.474;2023-04-19T01:38:37;102143.02;;;6.18;100.00
55755;BME280;41674;52.290;-1.474;2023-04-19T01:41:07;102142.19;;;5.81;100.00
55755;BME280;41674;52.290;-1.474;2023-04-19T01:43:36;102144.16;;;5.83;100.00
55755;BME280;41674;52.290;-1.474;2023-04-19T01:46:05;102135.99;;;5.35;100.00
55755;BME280;41674;52.290;-1.474;2023-04-19T01:48:35;102135.34;;;6.28;100.00
55755;BME280;41674;52.290;-1.474;2023-04-19T01:51:04;102132.92;;;5.89;100.00
55755;BME280;41674;52.290;-1.474;2023-04-19T01:53:34;102132.84;;;6.81;98.43
55755;BME280;41674;52.290;-1.474;2023-04-19T01:56:03;102126.98;;;5.88;100.00
55755;BME280;41674;52.290;-1.474;2023-04-19T01:58:33;102125.64;;;6.32;100.00
55755;BME280;41674;52.290;-1.474;2023-04-19T02:01:02;102123.91;;;5.85;100.00
55755;BME280;41674;52.290;-1.474;2023-04-19T02:03:31;102123.36;;;6.76;98.76
55755;BME280;41674;52.290;-1.474;2023-04-19T02:06:01;102120.77;;;6.68;97.73
55755;BME280;41674;52.290;-1.474;2023-04-19T02:08:30;102119.03;;;6.77;96.64
55755;BME280;41674;52.290;-1.474;2023-04-19T02:11:03;102118.03;;;6.55;98.14
55755;BME280;41674;52.290;-1.474;2023-04-19T02:13:29;102116.44;;;5.85;100.00
55755;BME280;41674;52.290;-1.474;2023-04-19T02:15:58;102115.64;;;6.11;100.00
55755;BME280;41674;52.290;-1.474;2023-04-19T02:18:28;102117.32;;;6.90;96.79
55755;BME280;41674;52.290;-1.474;2023-04-19T02:20:58;102111.91;;;6.83;97.33
55755;BME280;41674;52.290;-1.474;2023-04-19T02:23:26;102104.89;;;7.18;93.99
55755;BME280;41674;52.290;-1.474;2023-04-19T02:25:56;102103.71;;;7.92;92.34
55755;BME280;41674;52.290;-1.474;2023-04-19T02:28:25;102104.71;;;7.93;89.95
55755;BME280;41674;52.290;-1.474;2023-04-19T02:30:55;102110.46;;;6.58;92.44
55755;BME280;41674;52.290;-1.474;2023-04-19T02:33:25;102101.45;;;7.25;91.20
55755;BME280;41674;52.290;-1.474;2023-04-19T02:35:54;102101.55;;;7.37;91.65
55755;BME280;41674;52.290;-1.474;2023-04-19T02:38:23;102099.74;;;8.11;89.43
55755;BME280;41674;52.290;-1.474;2023-04-19T02:40:52;102093.61;;;7.24;91.99
55755;BME280;41674;52.290;-1.474;2023-04-19T02:43:22;102093.57;;;7.84;87.81
55755;BME280;41674;52.290;-1.474;2023-04-19T02:45:52;102090.91;;;8.39;86.66
55755;BME280;41674;52.290;-1.474;2023-04-19T02:48:21;102088.14;;;8.61;84.62
55755;BME280;41674;52.290;-1.474;2023-04-19T02:50:51;102091.84;;;8.40;85.81
55755;BME280;41674;52.290;-1.474;2023-04-19T02:53:21;102090.03;;;7.77;87.82
55755;BME280;41674;52.290;-1.474;2023-04-19T02:55:51;102092.05;;;7.85;88.25
55755;BME280;41674;52.290;-1.474;2023-04-19T02:58:20;102091.60;;;8.11;88.00
55755;BME280;41674;52.290;-1.474;2023-04-19T03:00:49;102100.90;;;6.52;94.46
55755;BME280;41674;52.290;-1.474;2023-04-19T03:03:19;102103.24;;;7.04;93.87
55755;BME280;41674;52.290;-1.474;2023-04-19T03:05:48;102100.92;;;6.80;95.40
55755;BME280;41674;52.290;-1.474;2023-04-19T03:08:18;102099.11;;;7.13;93.68
55755;BME280;41674;52.290;-1.474;2023-04-19T03:10:47;102098.94;;;6.88;96.55
55755;BME280;41674;52.290;-1.474;2023-04-19T03:13:16;102092.55;;;7.71;92.64
55755;BME280;41674;52.290;-1.474;2023-04-19T03:15:46;102090.31;;;7.60;92.65
55755;BME280;41674;52.290;-1.474;2023-04-19T03:18:15;102095.30;;;6.52;100.00
55755;BME280;41674;52.290;-1.474;2023-04-19T03:20:44;102090.15;;;6.05;100.00
55755;BME280;41674;52.290;-1.474;2023-04-19T03:23:14;102085.05;;;5.64;100.00
55755;BME280;41674;52.290;-1.474;2023-04-19T03:25:48;102085.82;;;5.96;100.00
55755;BME280;41674;52.290;-1.474;2023-04-19T03:28:13;102085.20;;;6.77;99.68
55755;BME280;41674;52.290;-1.474;2023-04-19T03:30:42;102086.68;;;6.64;100.00
55755;BME280;41674;52.290;-1.474;2023-04-19T03:33:11;102085.68;;;5.38;100.00
55755;BME280;41674;52.290;-1.474;2023-04-19T03:35:40;102086.28;;;5.53;100.00
55755;BME280;41674;52.290;-1.474;2023-04-19T03:38:10;102088.03;;;5.93;100.00
55755;BME280;41674;52.290;-1.474;2023-04-19T03:40:39;102086.13;;;5.15;100.00
55755;BME280;41674;52.290;-1.474;2023-04-19T03:43:09;102087.68;;;4.74;100.00
55755;BME280;41674;52.290;-1.474;2023-04-19T03:45:38;102090.57;;;5.33;100.00
55755;BME280;41674;52.290;-1.474;2023-04-19T03:48:07;102086.56;;;4.98;100.00
55755;BME280;41674;52.290;-1.474;2023-04-19T03:50:37;102082.91;;;5.81;100.00
55755;BME280;41674;52.290;-1.474;2023-04-19T03:53:07;102084.88;;;5.32;100.00
55755;BME280;41674;52.290;-1.474;2023-04-19T03:55:36;102089.06;;;6.13;100.00
55755;BME280;41674;52.290;-1.474;2023-04-19T03:58:06;102085.52;;;5.21;100.00
55755;BME280;41674;52.290;-1.474;2023-04-19T04:00:36;102084.50;;;5.34;100.00
55755;BME280;41674;52.290;-1.474;2023-04-19T04:03:06;102085.76;;;5.54;100.00
55755;BME280;41674;52.290;-1.474;2023-04-19T04:05:36;102084.42;;;5.04;100.00
55755;BME280;41674;52.290;-1.474;2023-04-19T04:08:04;102081.41;;;5.35;100.00
55755;BME280;41674;52.290;-1.474;2023-04-19T04:10:34;102082.80;;;5.58;100.00
55755;BME280;41674;52.290;-1.474;2023-04-19T04:13:03;102085.54;;;6.86;100.00
55755;BME280;41674;52.290;-1.474;2023-04-19T04:15:32;102079.81;;;5.63;100.00
55755;BME280;41674;52.290;-1.474;2023-04-19T04:18:01;102084.21;;;5.78;100.00
55755;BME280;41674;52.290;-1.474;2023-04-19T04:20:31;102079.16;;;6.40;99.89
55755;BME280;41674;52.290;-1.474;2023-04-19T04:23:00;102081.59;;;6.10;100.00
55755;BME280;41674;52.290;-1.474;2023-04-19T04:25:29;102082.20;;;5.78;100.00
55755;BME280;41674;52.290;-1.474;2023-04-19T04:27:58;102080.97;;;6.14;97.90
55755;BME280;41674;52.290;-1.474;2023-04-19T04:30:29;102086.08;;;5.57;100.00
55755;BME280;41674;52.290;-1.474;2023-04-19T04:32:57;102087.04;;;6.20;100.00
55755;BME280;41674;52.290;-1.474;2023-04-19T04:35:27;102082.05;;;6.75;95.98
55755;BME280;41674;52.290;-1.474;2023-04-19T04:37:56;102089.04;;;5.42;100.00
55755;BME280;41674;52.290;-1.474;2023-04-19T04:40:25;102089.57;;;5.31;100.00
55755;BME280;41674;52.290;-1.474;2023-04-19T04:42:55;102083.60;;;7.16;95.69
55755;BME280;41674;52.290;-1.474;2023-04-19T04:45:24;102084.67;;;5.14;100.00
55755;BME280;41674;52.290;-1.474;2023-04-19T04:47:54;102083.32;;;5.10;100.00
55755;BME280;41674;52.290;-1.474;2023-04-19T04:50:24;102084.35;;;5.05;100.00
55755;BME280;41674;52.290;-1.474;2023-04-19T04:52:53;102080.60;;;4.78;100.00
55755;BME280;41674;52.290;-1.474;2023-04-19T04:55:22;102083.10;;;5.05;100.00
55755;BME280;41674;52.290;-1.474;2023-04-19T04:57:52;102078.33;;;5.01;100.00
55755;BME280;41674;52.290;-1.474;2023-04-19T05:00:26;102082.77;;;5.89;100.00
55755;BME280;41674;52.290;-1.474;2023-04-19T05:02:50;102080.80;;;5.13;100.00
55755;BME280;41674;52.290;-1.474;2023-04-19T05:05:20;102083.94;;;4.60;100.00
55755;BME280;41674;52.290;-1.474;2023-04-19T05:07:49;102084.48;;;5.02;100.00
55755;BME280;41674;52.290;-1.474;2023-04-19T05:10:19;102087.82;;;5.35;100.00
55755;BME280;41674;52.290;-1.474;2023-04-19T05:12:48;102088.44;;;5.46;100.00
55755;BME280;41674;52.290;-1.474;2023-04-19T05:15:17;102088.00;;;6.92;100.00
55755;BME280;41674;52.290;-1.474;2023-04-19T05:17:47;102088.40;;;6.80;98.95
55755;BME280;41674;52.290;-1.474;2023-04-19T05:20:17;102097.08;;;6.35;100.00
55755;BME280;41674;52.290;-1.474;2023-04-19T05:22:46;102094.21;;;7.19;100.00
55755;BME280;41674;52.290;-1.474;2023-04-19T05:25:15;102087.76;;;7.21;97.41
55755;BME280;41674;52.290;-1.474;2023-04-19T05:27:45;102094.64;;;6.23;100.00
55755;BME280;41674;52.290;-1.474;2023-04-19T05:30:14;102094.77;;;5.58;100.00
55755;BME280;41674;52.290;-1.474;2023-04-19T05:32:44;102095.72;;;6.05;100.00
55755;BME280;41674;52.290;-1.474;2023-04-19T05:35:13;102097.96;;;6.48;100.00
55755;BME280;41674;52.290;-1.474;2023-04-19T05:37:43;102099.99;;;6.26;100.00
55755;BME280;41674;52.290;-1.474;2023-04-19T05:40:13;102094.14;;;5.31;100.00
55755;BME280;41674;52.290;-1.474;2023-04-19T05:42:42;102094.97;;;5.30;100.00
55755;BME280;41674;52.290;-1.474;2023-04-19T05:45:12;102095.96;;;6.58;100.00
55755;BME280;41674;52.290;-1.474;2023-04-19T05:47:41;102096.58;;;6.16;100.00
55755;BME280;41674;52.290;-1.474;2023-04-19T05:50:10;102095.37;;;4.83;100.00
55755;BME280;41674;52.290;-1.474;2023-04-19T05:52:40;102095.64;;;6.44;100.00
55755;BME280;41674;52.290;-1.474;2023-04-19T05:55:09;102095.60;;;7.48;96.16
55755;BME280;41674;52.290;-1.474;2023-04-19T05:57:39;102099.27;;;6.08;100.00
55755;BME280;41674;52.290;-1.474;2023-04-19T06:00:09;102099.74;;;5.42;100.00
55755;BME280;41674;52.290;-1.474;2023-04-19T06:02:37;102099.45;;;6.12;100.00
55755;BME280;41674;52.290;-1.474;2023-04-19T06:05:07;102099.15;;;5.13;100.00
55755;BME280;41674;52.290;-1.474;2023-04-19T06:07:36;102103.30;;;6.13;100.00
55755;BME280;41674;52.290;-1.474;2023-04-19T06:10:13;102104.10;;;6.40;100.00
55755;BME280;41674;52.290;-1.474;2023-04-19T06:12:36;102101.54;;;7.13;98.61
55755;BME280;41674;52.290;-1.474;2023-04-19T06:15:06;102101.63;;;6.46;100.00
55755;BME280;41674;52.290;-1.474;2023-04-19T06:17:34;102097.29;;;6.72;99.15
55755;BME280;41674;52.290;-1.474;2023-04-19T06:20:05;102096.53;;;6.29;100.00
55755;BME280;41674;52.290;-1.474;2023-04-19T06:22:33;102092.33;;;7.26;96.47
55755;BME280;41674;52.290;-1.474;2023-04-19T06:25:04;102095.61;;;7.61;94.06
55755;BME280;41674;52.290;-1.474;2023-04-19T06:27:32;102095.78;;;7.50;95.07
55755;BME280;41674;52.290;-1.474;2023-04-19T06:30:03;102100.31;;;7.95;95.63
55755;BME280;41674;52.290;-1.474;2023-04-19T06:32:32;102105.01;;;6.68;99.15
55755;BME280;41674;52.290;-1.474;2023-04-19T06:35:01;102105.31;;;5.73;100.00
55755;BME280;41674;52.290;-1.474;2023-04-19T06:37:32;102103.13;;;6.08;100.00
55755;BME280;41674;52.290;-1.474;2023-04-19T06:40:00;102103.67;;;5.93;100.00
55755;BME280;41674;52.290;-1.474;2023-04-19T06:42:30;102105.46;;;6.34;100.00
55755;BME280;41674;52.290;-1.474;2023-04-19T06:44:59;102104.11;;;6.64;100.00
55755;BME280;41674;52.290;-1.474;2023-04-19T06:47:29;102107.30;;;6.12;100.00
55755;BME280;41674;52.290;-1.474;2023-04-19T06:49:58;102103.66;;;5.88;100.00
55755;BME280;41674;52.290;-1.474;2023-04-19T06:52:28;102103.06;;;6.46;100.00
55755;BME280;41674;52.290;-1.474;2023-04-19T06:54:58;102100.89;;;6.83;100.00
55755;BME280;41674;52.290;-1.474;2023-04-19T06:57:27;102108.04;;;6.14;100.00
55755;BME280;41674;52.290;-1.474;2023-04-19T06:59:56;102106.88;;;5.90;100.00
55755;BME280;41674;52.290;-1.474;2023-04-19T07:02:26;102106.78;;;5.27;100.00
55755;BME280;41674;52.290;-1.474;2023-04-19T07:04:55;102110.54;;;5.87;100.00
55755;BME280;41674;52.290;-1.474;2023-04-19T07:07:25;102113.38;;;5.88;100.00
55755;BME280;41674;52.290;-1.474;2023-04-19T07:09:54;102117.41;;;6.21;100.00
55755;BME280;41674;52.290;-1.474;2023-04-19T07:12:24;102120.57;;;5.85;100.00
55755;BME280;41674;52.290;-1.474;2023-04-19T07:14:53;102123.46;;;6.37;100.00
55755;BME280;41674;52.290;-1.474;2023-04-19T07:17:22;102127.05;;;6.19;100.00
55755;BME280;41674;52.290;-1.474;2023-04-19T07:19:51;102132.24;;;6.71;100.00
55755;BME280;41674;52.290;-1.474;2023-04-19T07:22:21;102134.26;;;6.28;100.00
55755;BME280;41674;52.290;-1.474;2023-04-19T07:24:50;102137.16;;;6.34;100.00
55755;BME280;41674;52.290;-1.474;2023-04-19T07:27:19;102143.26;;;6.33;100.00
55755;BME280;41674;52.290;-1.474;2023-04-19T07:29:51;102140.50;;;7.25;98.29
55755;BME280;41674;52.290;-1.474;2023-04-19T07:32:19;102139.86;;;7.12;99.62
55755;BME280;41674;52.290;-1.474;2023-04-19T07:34:48;102138.00;;;6.43;100.00
55755;BME280;41674;52.290;-1.474;2023-04-19T07:37:17;102145.85;;;7.00;100.00
55755;BME280;41674;52.290;-1.474;2023-04-19T07:39:46;102140.56;;;7.63;97.37
55755;BME280;41674;52.290;-1.474;2023-04-19T07:42:16;102146.14;;;7.09;98.68
55755;BME280;41674;52.290;-1.474;2023-04-19T07:44:45;102137.80;;;7.76;98.05
55755;BME280;41674;52.290;-1.474;2023-04-19T07:47:14;102146.09;;;6.85;100.00
55755;BME280;41674;52.290;-1.474;2023-04-19T07:49:44;102142.19;;;7.23;98.65
55755;BME280;41674;52.290;-1.474;2023-04-19T07:52:13;102144.15;;;7.57;98.73
55755;BME280;41674;52.290;-1.474;2023-04-19T07:54:43;102143.20;;;6.87;100.00
55755;BME280;41674;52.290;-1.474;2023-04-19T07:57:13;102139.15;;;7.01;98.79
55755;BME280;41674;52.290;-1.474;2023-04-19T07:59:42;102139.70;;;7.18;99.98
55755;BME280;41674;52.290;-1.474;2023-04-19T08:02:11;102140.96;;;6.46;100.00
55755;BME280;41674;52.290;-1.474;2023-04-19T08:04:41;102143.81;;;6.62;100.00
55755;BME280;41674;52.290;-1.474;2023-04-19T08:07:10;102137.89;;;6.81;100.00
55755;BME280;41674;52.290;-1.474;2023-04-19T08:09:39;102135.00;;;7.94;95.95
55755;BME280;41674;52.290;-1.474;2023-04-19T08:12:09;102132.62;;;8.03;94.75
55755;BME280;41674;52.290;-1.474;2023-04-19T08:14:39;102133.52;;;7.77;96.49
55755;BME280;41674;52.290;-1.474;2023-04-19T08:17:08;102135.97;;;7.67;97.34
55755;BME280;41674;52.290;-1.474;2023-04-19T08:19:38;102143.35;;;6.99;100.00
55755;BME280;41674;52.290;-1.474;2023-04-19T08:22:08;102138.76;;;7.69;96.91
55755;BME280;41674;52.290;-1.474;2023-04-19T08:24:37;102137.55;;;7.61;95.41
55755;BME280;41674;52.290;-1.474;2023-04-19T08:27:08;102136.88;;;7.59;97.13
55755;BME280;41674;52.290;-1.474;2023-04-19T08:29:36;102139.29;;;7.46;97.54
55755;BME280;41674;52.290;-1.474;2023-04-19T08:32:05;102138.12;;;7.85;95.27
55755;BME280;41674;52.290;-1.474;2023-04-19T08:34:35;102137.96;;;7.72;96.79
55755;BME280;41674;52.290;-1.474;2023-04-19T08:37:04;102135.86;;;8.12;95.03
55755;BME280;41674;52.290;-1.474;2023-04-19T08:39:34;102132.12;;;9.11;89.45
55755;BME280;41674;52.290;-1.474;2023-04-19T08:42:05;102135.12;;;8.38;92.24
55755;BME280;41674;52.290;-1.474;2023-04-19T08:44:35;102137.54;;;7.99;94.23
55755;BME280;41674;52.290;-1.474;2023-04-19T08:47:03;102131.08;;;8.16;93.23
55755;BME280;41674;52.290;-1.474;2023-04-19T08:49:34;102134.90;;;8.71;92.93
55755;BME280;41674;52.290;-1.474;2023-04-19T08:52:01;102135.67;;;8.20;94.29
55755;BME280;41674;52.290;-1.474;2023-04-19T08:54:31;102138.95;;;9.19;88.36
55755;BME280;41674;52.290;-1.474;2023-04-19T08:57:00;102135.20;;;9.19;88.77
55755;BME280;41674;52.290;-1.474;2023-04-19T08:59:29;102141.04;;;9.42;86.88
55755;BME280;41674;52.290;-1.474;2023-04-19T09:02:00;102143.07;;;8.63;90.87
55755;BME280;41674;52.290;-1.474;2023-04-19T09:04:28;102141.03;;;8.82;92.99
55755;BME280;41674;52.290;-1.474;2023-04-19T09:06:58;102142.47;;;8.93;89.45
55755;BME280;41674;52.290;-1.474;2023-04-19T09:09:28;102141.33;;;8.28;92.87
55755;BME280;41674;52.290;-1.474;2023-04-19T09:11:57;102145.10;;;8.16;95.39
55755;BME280;41674;52.290;-1.474;2023-04-19T09:14:28;102143.64;;;8.90;90.97
55755;BME280;41674;52.290;-1.474;2023-04-19T09:17:10;102143.00;;;7.68;97.05
55755;BME280;41674;52.290;-1.474;2023-04-19T09:19:26;102139.37;;;8.32;95.04
55755;BME280;41674;52.290;-1.474;2023-04-19T09:21:56;102141.14;;;7.98;99.64
55755;BME280;41674;52.290;-1.474;2023-04-19T09:26:55;102136.42;;;9.57;89.88
55755;BME280;41674;52.290;-1.474;2023-04-19T09:29:24;102133.92;;;8.30;95.06
55755;BME280;41674;52.290;-1.474;2023-04-19T09:31:58;102131.15;;;9.18;91.43
55755;BME280;41674;52.290;-1.474;2023-04-19T09:34:24;102129.06;;;9.12;89.25
55755;BME280;41674;52.290;-1.474;2023-04-19T09:36:54;102125.51;;;9.11;88.09
55755;BME280;41674;52.290;-1.474;2023-04-19T09:39:30;102132.51;;;9.14;89.89
55755;BME280;41674;52.290;-1.474;2023-04-19T09:41:52;102126.52;;;9.00;91.05
55755;BME280;41674;52.290;-1.474;2023-04-19T09:44:21;102128.80;;;8.34;93.62
55755;BME280;41674;52.290;-1.474;2023-04-19T09:46:51;102129.72;;;9.07;93.80
55755;BME280;41674;52.290;-1.474;2023-04-19T09:49:21;102122.46;;;9.38;91.19
55755;BME280;41674;52.290;-1.474;2023-04-19T09:51:52;102121.26;;;8.53;91.53
55755;BME280;41674;52.290;-1.474;2023-04-19T09:54:20;102116.11;;;8.43;94.82
55755;BME280;41674;52.290;-1.474;2023-04-19T09:56:50;102105.41;;;9.12;90.91
55755;BME280;41674;52.290;-1.474;2023-04-19T09:59:19;102108.74;;;10.43;84.65
55755;BME280;41674;52.290;-1.474;2023-04-19T10:01:52;102109.57;;;10.08;87.44
55755;BME280;41674;52.290;-1.474;2023-04-19T10:04:18;102113.46;;;9.91;89.32
55755;BME280;41674;52.290;-1.474;2023-04-19T10:06:48;102111.49;;;9.48;90.21
55755;BME280;41674;52.290;-1.474;2023-04-19T10:09:18;102108.11;;;9.55;89.27
55755;BME280;41674;52.290;-1.474;2023-04-19T10:11:48;102106.84;;;10.34;87.01
55755;BME280;41674;52.290;-1.474;2023-04-19T10:14:18;102101.55;;;10.37;86.42
55755;BME280;41674;52.290;-1.474;2023-04-19T10:16:46;102095.08;;;9.78;88.15
55755;BME280;41674;52.290;-1.474;2023-04-19T10:19:17;102100.65;;;9.92;91.06
55755;BME280;41674;52.290;-1.474;2023-04-19T10:21:46;102101.68;;;10.32;86.91
55755;BME280;41674;52.290;-1.474;2023-04-19T10:24:14;102093.38;;;10.36;87.31
55755;BME280;41674;52.290;-1.474;2023-04-19T10:29:12;102092.45;;;10.07;89.32
55755;BME280;41674;52.290;-1.474;2023-04-19T10:31:42;102087.38;;;10.79;86.10
55755;BME280;41674;52.290;-1.474;2023-04-19T10:34:12;102089.71;;;10.77;84.88
55755;BME280;41674;52.290;-1.474;2023-04-19T10:36:43;102080.96;;;11.10;83.79
55755;BME280;41674;52.290;-1.474;2023-04-19T10:44:10;102080.23;;;10.84;85.23
55755;BME280;41674;52.290;-1.474;2023-04-19T10:46:39;102074.29;;;10.85;84.52
55755;BME280;41674;52.290;-1.474;2023-04-19T10:49:08;102068.61;;;11.34;84.86
55755;BME280;41674;52.290;-1.474;2023-04-19T10:51:38;102068.96;;;10.80;86.35
55755;BME280;41674;52.290;-1.474;2023-04-19T10:54:08;102072.38;;;9.97;86.90
55755;BME280;41674;52.290;-1.474;2023-04-19T10:59:14;102063.85;;;10.61;87.35
55755;BME280;41674;52.290;-1.474;2023-04-19T11:01:37;102055.87;;;11.03;84.95
55755;BME280;41674;52.290;-1.474;2023-04-19T11:04:05;102060.58;;;11.20;83.20
55755;BME280;41674;52.290;-1.474;2023-04-19T11:06:34;102057.51;;;11.21;86.59
55755;BME280;41674;52.290;-1.474;2023-04-19T11:09:08;102055.26;;;11.27;81.18
55755;BME280;41674;52.290;-1.474;2023-04-19T11:11:33;102049.95;;;10.81;82.32
55755;BME280;41674;52.290;-1.474;2023-04-19T11:14:02;102055.34;;;10.65;82.81
55755;BME280;41674;52.290;-1.474;2023-04-19T11:16:30;102052.33;;;11.64;79.46
55755;BME280;41674;52.290;-1.474;2023-04-19T11:19:00;102045.31;;;11.65;78.94
55755;BME280;41674;52.290;-1.474;2023-04-19T11:21:29;102043.81;;;11.47;81.74
55755;BME280;41674;52.290;-1.474;2023-04-19T11:24:06;102040.77;;;12.28;78.97
55755;BME280;41674;52.290;-1.474;2023-04-19T11:26:28;102037.52;;;12.33;80.09
55755;BME280;41674;52.290;-1.474;2023-04-19T11:28:57;102031.64;;;11.80;80.32
55755;BME280;41674;52.290;-1.474;2023-04-19T11:31:27;102028.34;;;11.57;78.57
55755;BME280;41674;52.290;-1.474;2023-04-19T11:33:58;102034.62;;;12.24;77.26
55755;BME280;41674;52.290;-1.474;2023-04-19T11:36:25;102034.36;;;11.71;77.41
55755;BME280;41674;52.290;-1.474;2023-04-19T11:38:54;102037.41;;;12.57;76.04
55755;BME280;41674;52.290;-1.474;2023-04-19T11:41:24;102037.86;;;12.03;76.22
55755;BME280;41674;52.290;-1.474;2023-04-19T11:43:54;102037.74;;;12.14;74.68
55755;BME280;41674;52.290;-1.474;2023-04-19T11:46:22;102037.89;;;11.51;77.35
55755;BME280;41674;52.290;-1.474;2023-04-19T11:48:53;102034.73;;;12.12;77.55
55755;BME280;41674;52.290;-1.474;2023-04-19T11:51:21;102034.11;;;11.67;78.96
55755;BME280;41674;52.290;-1.474;2023-04-19T11:53:51;102031.40;;;12.42;74.33
55755;BME280;41674;52.290;-1.474;2023-04-19T11:56:21;102035.41;;;11.25;77.97
55755;BME280;41674;52.290;-1.474;2023-04-19T11:58:50;102034.49;;;10.82;81.35
55755;BME280;41674;52.290;-1.474;2023-04-19T12:01:20;102030.84;;;10.61;81.88
55755;BME280;41674;52.290;-1.474;2023-04-19T12:03:51;102025.44;;;11.49;81.49
55755;BME280;41674;52.290;-1.474;2023-04-19T12:06:24;102023.25;;;11.07;82.49
55755;BME280;41674;52.290;-1.474;2023-04-19T12:08:50;102020.97;;;11.40;81.96
55755;BME280;41674;52.290;-1.474;2023-04-19T12:11:20;102033.27;;;10.50;84.32
55755;BME280;41674;52.290;-1.474;2023-04-19T12:13:55;102028.32;;;10.29;84.60
55755;BME280;41674;52.290;-1.474;2023-04-19T12:16:26;102026.86;;;10.93;83.63
55755;BME280;41674;52.290;-1.474;2023-04-19T12:18:48;102020.61;;;11.30;83.49
55755;BME280;41674;52.290;-1.474;2023-04-19T12:21:26;102029.37;;;10.38;89.33
55755;BME280;41674;52.290;-1.474;2023-04-19T12:23:46;102024.68;;;11.08;85.71
55755;BME280;41674;52.290;-1.474;2023-04-19T12:26:16;102017.69;;;11.27;81.68
55755;BME280;41674;52.290;-1.474;2023-04-19T12:28:45;102021.55;;;11.14;82.68
55755;BME280;41674;52.290;-1.474;2023-04-19T12:31:15;102026.36;;;11.03;82.78
55755;BME280;41674;52.290;-1.474;2023-04-19T12:33:44;102015.92;;;11.14;81.79
55755;BME280;41674;52.290;-1.474;2023-04-19T12:36:14;102015.64;;;11.60;80.55
55755;BME280;41674;52.290;-1.474;2023-04-19T12:38:43;102010.06;;;11.53;81.79
55755;BME280;41674;52.290;-1.474;2023-04-19T12:41:12;102014.03;;;10.53;86.89
55755;BME280;41674;52.290;-1.474;2023-04-19T12:43:42;102011.02;;;10.85;83.07
55755;BME280;41674;52.290;-1.474;2023-04-19T12:46:11;102014.87;;;10.85;83.73
55755;BME280;41674;52.290;-1.474;2023-04-19T12:48:41;102018.61;;;10.42;84.52
55755;BME280;41674;52.290;-1.474;2023-04-19T12:51:10;102015.29;;;10.49;85.42
55755;BME280;41674;52.290;-1.474;2023-04-19T12:53:40;102015.30;;;10.24;84.86
55755;BME280;41674;52.290;-1.474;2023-04-19T12:56:08;102009.86;;;10.75;82.76
55755;BME280;41674;52.290;-1.474;2023-04-19T12:58:38;102008.19;;;11.18;81.75
55755;BME280;41674;52.290;-1.474;2023-04-19T13:01:07;102003.81;;;11.06;82.44
55755;BME280;41674;52.290;-1.474;2023-04-19T13:03:37;102001.62;;;11.00;81.81
55755;BME280;41674;52.290;-1.474;2023-04-19T13:06:06;102002.74;;;11.78;81.36